Time;durP1;ratioP1;P1;durP2;ratioP2;P2;SDS_P1;SDS_P2;PMS_P1;PMS_P2;Temp;Humidity;BMP_temperature;BMP_pressure;BME280_temperature;BME280_humidity;BME280_pressure;Samples;Min_cycle;Max_cycle;Signal;HPM_P1;HPM_P2
2023/07/31 00:01:11;;;;;;;12.00;1.80;;;17.70;99.90;;;;;;5078340;28;20244;-81
2023/07/31 00:03:37;;;;;;;7.78;2.47;;;17.70;99.90;;;;;;5084727;28;20076;-81
2023/07/31 00:06:03;;;;;;;5.35;2.13;;;17.70;99.90;;;;;;5081194;28;20105;-81
2023/07/31 00:08:28;;;;;;;9.82;2.42;;;17.70;99.90;;;;;;5061632;28;20024;-81
2023/07/31 00:10:54;;;;;;;7.75;1.98;;;17.70;99.90;;;;;;5084189;28;20656;-81
2023/07/31 00:13:19;;;;;;;17.42;2.58;;;17.70;99.90;;;;;;5067674;28;20418;-81
2023/07/31 00:15:45;;;;;;;7.82;1.52;;;17.70;99.90;;;;;;5072495;28;20428;-81
2023/07/31 00:18:11;;;;;;;4.72;2.03;;;17.60;99.90;;;;;;5083086;28;20107;-81
2023/07/31 00:20:36;;;;;;;6.18;2.03;;;17.60;99.90;;;;;;5086425;28;20111;-81
2023/07/31 00:23:02;;;;;;;7.43;2.15;;;17.60;99.90;;;;;;5085043;28;20116;-81
2023/07/31 00:25:27;;;;;;;11.38;2.55;;;17.60;99.90;;;;;;5083911;28;20032;-81
2023/07/31 00:27:53;;;;;;;10.45;2.28;;;17.60;99.90;;;;;;5081906;28;20062;-81
2023/07/31 00:30:18;;;;;;;21.90;2.88;;;17.60;99.90;;;;;;5081716;28;20346;-82
2023/07/31 00:32:44;;;;;;;14.40;2.38;;;17.60;99.90;;;;;;5083206;28;20016;-81
2023/07/31 00:35:09;;;;;;;9.85;2.15;;;17.60;99.90;;;;;;5078780;28;20377;-81
2023/07/31 00:37:35;;;;;;;14.38;2.47;;;17.60;99.90;;;;;;5079063;28;20027;-81
2023/07/31 00:40:03;;;;;;;7.45;1.63;;;17.60;99.90;;;;;;5062558;28;20027;-81
2023/07/31 00:42:28;;;;;;;7.32;2.00;;;17.60;99.90;;;;;;5080621;28;20020;-81
2023/07/31 00:44:54;;;;;;;6.40;2.00;;;17.60;99.90;;;;;;5081434;28;20024;-81
2023/07/31 00:47:20;;;;;;;5.88;1.80;;;17.60;99.90;;;;;;5082167;28;20030;-80
2023/07/31 00:49:49;;;;;;;7.13;2.00;;;17.60;99.90;;;;;;5078167;28;20496;-81
2023/07/31 00:52:14;;;;;;;7.78;1.70;;;17.60;99.90;;;;;;5082629;28;20055;-81
2023/07/31 00:54:40;;;;;;;5.78;1.85;;;17.60;99.90;;;;;;5085192;28;20496;-80
2023/07/31 00:57:07;;;;;;;10.25;1.73;;;17.60;99.90;;;;;;5080964;28;20036;-80
2023/07/31 00:59:33;;;;;;;8.50;2.05;;;17.60;99.90;;;;;;5081877;28;20081;-81
2023/07/31 01:02:03;;;;;;;4.05;1.77;;;17.50;99.90;;;;;;5080783;28;20017;-81
2023/07/31 01:04:29;;;;;;;6.55;1.52;;;17.50;99.90;;;;;;5072339;28;20488;-83
2023/07/31 01:07:16;;;;;;;12.43;2.17;;;17.30;99.90;;;;;;5075763;28;20021;-81
2023/07/31 01:10:00;;;;;;;5.10;1.90;;;17.30;99.90;;;;;;5081509;28;20461;-80
2023/07/31 01:12:29;;;;;;;6.60;1.42;;;17.10;99.90;;;;;;5079927;28;20108;-82
2023/07/31 01:15:01;;;;;;;6.15;1.13;;;17.10;99.90;;;;;;5078793;28;20034;-80
2023/07/31 01:17:26;;;;;;;3.88;1.30;;;17.00;99.90;;;;;;5073303;28;20073;-82
2023/07/31 01:19:54;;;;;;;5.30;1.40;;;16.90;99.90;;;;;;5076880;28;20016;-81
2023/07/31 01:22:54;;;;;;;3.35;1.27;;;16.80;99.90;;;;;;5075425;28;20028;-81
2023/07/31 01:25:49;;;;;;;5.03;0.98;;;16.70;99.90;;;;;;5076353;28;20036;-81
2023/07/31 01:28:23;;;;;;;7.78;1.20;;;16.60;99.90;;;;;;5086218;28;20043;-80
2023/07/31 01:30:49;;;;;;;1.25;1.00;;;16.60;99.90;;;;;;5072945;28;20040;-82
2023/07/31 01:33:18;;;;;;;1.85;0.70;;;16.60;99.90;;;;;;5079415;28;20035;-80
2023/07/31 01:35:46;;;;;;;4.13;1.33;;;16.60;99.90;;;;;;5080505;28;20024;-81
2023/07/31 01:38:11;;;;;;;2.60;1.10;;;16.60;99.90;;;;;;5077801;28;20031;-80
2023/07/31 01:40:37;;;;;;;2.97;1.10;;;16.50;99.90;;;;;;5078804;28;20530;-81
2023/07/31 01:43:03;;;;;;;4.03;1.00;;;16.40;99.90;;;;;;5080080;28;20495;-81
2023/07/31 01:45:29;;;;;;;2.90;0.90;;;16.40;99.90;;;;;;5077963;28;20025;-80
2023/07/31 01:47:57;;;;;;;1.50;0.88;;;16.40;99.90;;;;;;5079385;28;20061;-81
2023/07/31 01:50:23;;;;;;;4.15;1.35;;;16.40;99.90;;;;;;5079423;28;20474;-82
2023/07/31 01:52:48;;;;;;;1.77;1.30;;;16.30;99.90;;;;;;5084466;28;20069;-80
2023/07/31 01:55:14;;;;;;;3.85;1.30;;;16.20;99.90;;;;;;5076138;28;20025;-81
2023/07/31 01:57:39;;;;;;;3.17;1.27;;;16.10;99.90;;;;;;5081096;28;20025;-81
2023/07/31 02:00:06;;;;;;;4.25;1.30;;;16.10;99.90;;;;;;5089415;28;20039;-81
2023/07/31 02:02:32;;;;;;;2.78;1.10;;;16.10;99.90;;;;;;5057616;28;20123;-82
2023/07/31 02:04:57;;;;;;;6.82;1.83;;;16.10;99.90;;;;;;5088928;28;20111;-81
2023/07/31 02:07:23;;;;;;;2.53;1.10;;;16.10;99.90;;;;;;5089153;28;20525;-82
2023/07/31 02:09:49;;;;;;;4.32;1.40;;;16.10;99.90;;;;;;5089679;28;20081;-82
2023/07/31 02:12:16;;;;;;;4.30;1.60;;;16.10;99.90;;;;;;5086068;28;20032;-82
2023/07/31 02:14:42;;;;;;;5.22;1.30;;;16.00;99.90;;;;;;5079857;28;20666;-82
2023/07/31 02:17:08;;;;;;;3.22;1.70;;;16.10;99.90;;;;;;5080157;28;20056;-84
2023/07/31 02:19:33;;;;;;;5.50;1.48;;;16.10;99.90;;;;;;5082502;28;20381;-82
2023/07/31 02:21:59;;;;;;;2.65;1.23;;;16.00;99.90;;;;;;5078799;28;20016;-81
2023/07/31 02:24:24;;;;;;;4.38;1.60;;;16.10;99.90;;;;;;5085259;28;20008;-82
2023/07/31 02:26:50;;;;;;;5.20;1.58;;;16.10;99.90;;;;;;5078383;28;20024;-82
2023/07/31 02:29:16;;;;;;;2.58;1.48;;;16.10;99.90;;;;;;5079289;28;20188;-82
2023/07/31 02:31:41;;;;;;;2.83;1.50;;;16.10;99.90;;;;;;5078949;28;20050;-81
2023/07/31 02:34:07;;;;;;;5.95;1.67;;;16.10;99.90;;;;;;5087243;28;20107;-82
2023/07/31 02:36:32;;;;;;;5.45;1.60;;;16.10;99.90;;;;;;5087039;28;20031;-83
2023/07/31 02:38:58;;;;;;;8.50;1.40;;;16.10;99.90;;;;;;5081143;28;20526;-82
2023/07/31 02:41:24;;;;;;;5.55;1.85;;;16.10;99.90;;;;;;5084109;28;20017;-82
2023/07/31 02:43:49;;;;;;;5.88;1.98;;;16.20;99.90;;;;;;5086055;28;20026;-82
2023/07/31 02:46:15;;;;;;;7.22;2.10;;;16.20;99.90;;;;;;5082300;28;20118;-82
2023/07/31 02:48:40;;;;;;;5.20;1.85;;;16.20;99.90;;;;;;5080514;28;20028;-82
2023/07/31 02:51:06;;;;;;;5.30;2.20;;;16.10;99.90;;;;;;5081850;28;20040;-87
2023/07/31 02:53:31;;;;;;;5.95;2.17;;;16.20;99.90;;;;;;5082642;28;20111;-81
2023/07/31 02:55:57;;;;;;;10.02;2.65;;;16.10;99.90;;;;;;5082261;28;20027;-82
2023/07/31 02:58:23;;;;;;;7.22;2.35;;;16.10;99.90;;;;;;5065909;28;20038;-82
2023/07/31 03:01:02;;;;;;;9.63;2.97;;;16.00;99.90;;;;;;5081551;28;20107;-82
2023/07/31 03:03:30;;;;;;;11.32;2.20;;;16.10;99.90;;;;;;5080083;28;20118;-84
2023/07/31 03:05:55;;;;;;;7.00;2.25;;;16.10;99.90;;;;;;5084622;28;20095;-83
2023/07/31 03:08:21;;;;;;;10.20;3.30;;;16.10;99.90;;;;;;5080806;28;20019;-83
2023/07/31 03:10:46;;;;;;;3.90;2.17;;;16.10;99.90;;;;;;5071218;28;20056;-83
2023/07/31 03:13:12;;;;;;;4.57;2.00;;;16.10;99.90;;;;;;5085857;28;20024;-82
2023/07/31 03:15:38;;;;;;;11.18;2.83;;;16.10;99.90;;;;;;5080090;28;20028;-83
2023/07/31 03:18:03;;;;;;;9.60;2.28;;;16.10;99.90;;;;;;5077108;28;20469;-83
2023/07/31 03:20:29;;;;;;;5.75;2.28;;;16.10;99.90;;;;;;5088617;28;20020;-82
2023/07/31 03:22:54;;;;;;;7.65;2.70;;;16.10;99.90;;;;;;5079584;28;20282;-82
2023/07/31 03:25:20;;;;;;;9.07;2.42;;;16.10;99.90;;;;;;5085997;28;20028;-81
2023/07/31 03:27:45;;;;;;;9.02;2.42;;;16.20;99.90;;;;;;5080650;28;20043;-82
2023/07/31 03:30:12;;;;;;;8.18;2.35;;;16.10;99.90;;;;;;5076588;28;20109;-82
2023/07/31 03:32:38;;;;;;;7.00;2.80;;;16.10;99.90;;;;;;5081090;28;20032;-83
2023/07/31 03:35:05;;;;;;;8.35;3.47;;;16.10;99.90;;;;;;5083122;28;20294;-82
2023/07/31 03:37:31;;;;;;;6.85;2.80;;;16.10;99.90;;;;;;5086614;28;20027;-83
2023/07/31 03:39:57;;;;;;;9.88;2.80;;;16.10;99.90;;;;;;5085233;28;20024;-83
2023/07/31 03:42:22;;;;;;;13.57;2.60;;;16.10;99.90;;;;;;5083404;28;20113;-83
2023/07/31 03:44:48;;;;;;;8.93;2.83;;;16.10;99.90;;;;;;5086288;28;20047;-83
2023/07/31 03:47:13;;;;;;;14.60;3.25;;;16.10;99.90;;;;;;5083541;28;20378;-82
2023/07/31 03:49:39;;;;;;;9.45;2.72;;;16.10;99.90;;;;;;5081301;28;20032;-83
2023/07/31 03:52:08;;;;;;;13.15;3.03;;;16.20;99.90;;;;;;5079670;28;20028;-82
2023/07/31 03:54:33;;;;;;;5.35;2.50;;;16.20;99.90;;;;;;5083940;28;20098;-83
2023/07/31 03:56:59;;;;;;;8.73;2.75;;;16.10;99.90;;;;;;5082193;28;20023;-84
2023/07/31 03:59:24;;;;;;;9.93;3.10;;;16.10;99.90;;;;;;5086855;28;20020;-83
2023/07/31 04:01:53;;;;;;;8.88;2.58;;;16.20;99.90;;;;;;5078951;28;20016;-84
2023/07/31 04:04:19;;;;;;;6.72;2.30;;;16.20;99.90;;;;;;5081223;28;20056;-86
2023/07/31 04:06:45;;;;;;;7.97;2.53;;;16.20;99.90;;;;;;5083586;28;20023;-85
2023/07/31 04:09:11;;;;;;;6.68;2.17;;;16.20;99.90;;;;;;5085570;28;20016;-82
2023/07/31 04:11:36;;;;;;;8.02;2.67;;;16.10;99.90;;;;;;5078515;28;20032;-81
2023/07/31 04:14:02;;;;;;;5.53;2.20;;;16.10;99.90;;;;;;5083063;28;20031;-83
2023/07/31 04:16:27;;;;;;;6.20;1.95;;;16.10;99.90;;;;;;5077003;28;20028;-83
2023/07/31 04:18:53;;;;;;;8.98;3.22;;;16.10;99.90;;;;;;5082331;28;20024;-84
2023/07/31 04:21:18;;;;;;;4.43;1.80;;;16.10;99.90;;;;;;5084561;28;20012;-85
2023/07/31 04:23:44;;;;;;;4.20;1.92;;;16.00;99.90;;;;;;5080866;28;20022;-83
2023/07/31 04:26:10;;;;;;;2.28;1.70;;;16.10;99.90;;;;;;5076050;28;20048;-83
2023/07/31 04:28:35;;;;;;;2.47;1.60;;;16.00;99.90;;;;;;5078445;28;20422;-83
2023/07/31 04:31:01;;;;;;;4.05;1.80;;;16.10;99.90;;;;;;5084385;28;20032;-83
2023/07/31 04:33:27;;;;;;;5.68;2.08;;;16.00;99.90;;;;;;5077110;28;20676;-83
2023/07/31 04:35:53;;;;;;;3.13;1.73;;;16.10;99.90;;;;;;5081970;28;20020;-83
2023/07/31 04:38:22;;;;;;;2.95;1.63;;;16.10;99.90;;;;;;5065636;28;20373;-84
2023/07/31 04:40:48;;;;;;;3.78;1.92;;;16.10;99.90;;;;;;5086237;28;20020;-84
2023/07/31 04:43:14;;;;;;;4.40;2.30;;;16.10;99.90;;;;;;5078136;28;20051;-84
2023/07/31 04:45:42;;;;;;;4.93;1.95;;;16.10;99.90;;;;;;5077837;28;20679;-83
2023/07/31 04:48:07;;;;;;;4.18;2.00;;;16.20;99.90;;;;;;5078116;28;20070;-83
2023/07/31 04:50:33;;;;;;;5.22;2.42;;;16.20;99.90;;;;;;5078258;28;20130;-84
2023/07/31 04:52:58;;;;;;;5.60;2.85;;;16.20;99.90;;;;;;5069374;28;20036;-85
2023/07/31 04:55:24;;;;;;;5.97;2.58;;;16.20;99.90;;;;;;5080424;28;20027;-82
2023/07/31 04:57:49;;;;;;;6.97;2.15;;;16.20;99.90;;;;;;5083434;28;20024;-82
2023/07/31 05:00:18;;;;;;;8.68;2.58;;;16.20;99.90;;;;;;5080488;28;20028;-83
2023/07/31 05:02:44;;;;;;;8.23;2.40;;;16.20;99.90;;;;;;5073663;28;20044;-81
2023/07/31 05:05:09;;;;;;;12.65;3.05;;;16.20;99.90;;;;;;5083151;28;20024;-81
2023/07/31 05:07:35;;;;;;;7.40;2.67;;;16.30;99.90;;;;;;5080261;28;20012;-82
2023/07/31 05:10:00;;;;;;;11.95;3.55;;;16.30;99.90;;;;;;5080243;28;20546;-81
2023/07/31 05:12:26;;;;;;;5.18;2.78;;;16.40;99.90;;;;;;5082633;28;20469;-81
2023/07/31 05:14:51;;;;;;;8.48;3.58;;;16.40;99.90;;;;;;5081103;28;20024;-82
2023/07/31 05:17:17;;;;;;;7.55;3.33;;;16.40;99.90;;;;;;5065763;28;20028;-83
2023/07/31 05:19:43;;;;;;;11.38;3.35;;;16.50;99.90;;;;;;5065328;28;20054;-83
2023/07/31 05:22:08;;;;;;;8.07;3.55;;;16.50;99.90;;;;;;5085242;28;20481;-82
2023/07/31 05:24:34;;;;;;;9.52;3.53;;;16.50;99.90;;;;;;5080110;28;20624;-82
2023/07/31 05:26:59;;;;;;;5.93;3.28;;;16.50;99.90;;;;;;5087232;28;20032;-82
2023/07/31 05:29:25;;;;;;;9.50;3.70;;;16.50;99.90;;;;;;5089961;28;20043;-84
2023/07/31 05:31:50;;;;;;;10.23;3.17;;;16.60;99.90;;;;;;5090198;28;20103;-82
2023/07/31 05:34:16;;;;;;;10.18;3.65;;;16.60;99.90;;;;;;5079916;28;20065;-80
2023/07/31 05:36:42;;;;;;;13.40;3.10;;;16.60;99.90;;;;;;5083347;28;20061;-82
2023/07/31 05:39:08;;;;;;;10.48;3.53;;;16.70;99.90;;;;;;5082263;28;20527;-82
2023/07/31 05:41:35;;;;;;;6.45;3.35;;;16.70;99.90;;;;;;5067550;28;20020;-83
2023/07/31 05:44:00;;;;;;;13.05;3.53;;;16.80;99.90;;;;;;5083389;28;20020;-82
2023/07/31 05:46:26;;;;;;;11.00;3.35;;;16.70;99.90;;;;;;5087247;28;20043;-83
2023/07/31 05:48:52;;;;;;;5.45;3.08;;;16.80;99.90;;;;;;5078296;28;20027;-82
2023/07/31 05:51:17;;;;;;;8.88;3.47;;;16.80;99.90;;;;;;5087291;28;20063;-81
2023/07/31 05:53:43;;;;;;;9.55;3.53;;;16.80;99.90;;;;;;5085048;28;20057;-80
2023/07/31 05:56:09;;;;;;;7.93;3.58;;;16.80;99.90;;;;;;5084596;28;20028;-82
2023/07/31 05:58:34;;;;;;;10.35;4.47;;;16.80;99.90;;;;;;5088955;28;20027;-84
2023/07/31 06:01:03;;;;;;;9.25;2.95;;;16.80;99.90;;;;;;5089852;28;20453;-82
2023/07/31 06:03:28;;;;;;;6.03;3.20;;;16.80;99.90;;;;;;5070634;28;20028;-83
2023/07/31 06:05:54;;;;;;;12.75;3.50;;;16.80;99.90;;;;;;5081361;28;20155;-83
2023/07/31 06:08:20;;;;;;;9.73;3.70;;;16.80;99.90;;;;;;5079594;28;20012;-83
2023/07/31 06:10:48;;;;;;;5.95;3.28;;;16.80;99.90;;;;;;5073140;28;20036;-80
2023/07/31 06:13:14;;;;;;;9.00;2.83;;;16.80;99.90;;;;;;5064526;28;20028;-82
2023/07/31 06:15:39;;;;;;;7.90;3.38;;;16.80;99.90;;;;;;5079712;28;20028;-83
2023/07/31 06:18:07;;;;;;;6.78;3.03;;;16.80;99.90;;;;;;5089195;28;20557;-84
2023/07/31 06:20:33;;;;;;;12.30;3.63;;;16.80;99.90;;;;;;5084491;28;20020;-83
2023/07/31 06:23:00;;;;;;;6.45;2.92;;;16.80;99.90;;;;;;5084930;28;20111;-82
2023/07/31 06:25:26;;;;;;;10.38;3.00;;;16.80;99.90;;;;;;5071203;28;20057;-82
2023/07/31 06:27:51;;;;;;;7.05;3.03;;;16.90;99.90;;;;;;5079784;28;20395;-82
2023/07/31 06:30:17;;;;;;;7.30;2.95;;;16.90;99.90;;;;;;5079969;28;20044;-83
2023/07/31 06:32:43;;;;;;;6.68;3.40;;;17.00;99.90;;;;;;5083599;28;20020;-82
2023/07/31 06:35:08;;;;;;;9.20;2.78;;;16.90;99.90;;;;;;5084259;28;20460;-83
2023/07/31 06:37:34;;;;;;;9.02;3.17;;;17.00;99.90;;;;;;5079035;28;20039;-83
2023/07/31 06:40:00;;;;;;;7.65;3.40;;;16.90;99.90;;;;;;5082896;28;20533;-82
2023/07/31 06:42:25;;;;;;;11.60;3.47;;;17.00;99.90;;;;;;5076746;28;20030;-83
2023/07/31 06:44:51;;;;;;;8.23;3.10;;;17.00;99.90;;;;;;5087410;28;20059;-81
2023/07/31 06:47:17;;;;;;;6.03;2.97;;;17.10;99.90;;;;;;5083144;28;20115;-83
2023/07/31 06:49:42;;;;;;;8.05;3.28;;;17.10;99.90;;;;;;5084800;28;20464;-82
2023/07/31 06:52:08;;;;;;;11.30;3.28;;;17.10;99.90;;;;;;5086515;28;20086;-83
2023/07/31 06:54:33;;;;;;;7.80;2.80;;;17.20;99.90;;;;;;5084459;28;20417;-83
2023/07/31 06:56:59;;;;;;;12.45;3.35;;;17.10;99.90;;;;;;5080599;28;20374;-82
2023/07/31 06:59:24;;;;;;;10.77;3.50;;;17.20;99.90;;;;;;5075288;28;20476;-84
2023/07/31 07:01:50;;;;;;;6.10;3.05;;;17.20;99.90;;;;;;5068046;28;20081;-82
2023/07/31 07:04:16;;;;;;;12.32;3.92;;;17.20;99.90;;;;;;5079961;28;20116;-82
2023/07/31 07:06:42;;;;;;;9.25;3.08;;;17.30;99.90;;;;;;5086993;28;20272;-82
2023/07/31 07:09:07;;;;;;;7.38;3.05;;;17.30;99.90;;;;;;5088415;28;20028;-82
2023/07/31 07:11:33;;;;;;;8.07;3.55;;;17.30;99.90;;;;;;5083573;28;20063;-81
2023/07/31 07:14:00;;;;;;;19.02;3.80;;;17.40;99.90;;;;;;5079259;28;20021;-82
2023/07/31 07:16:29;;;;;;;9.27;3.38;;;17.40;99.90;;;;;;5078704;28;20024;-81
2023/07/31 07:18:54;;;;;;;4.78;2.88;;;17.50;99.90;;;;;;5080656;28;20043;-82
2023/07/31 07:21:20;;;;;;;9.20;2.80;;;17.40;99.90;;;;;;5084019;28;20028;-81
2023/07/31 07:23:45;;;;;;;10.25;3.63;;;17.40;99.90;;;;;;5087966;28;20969;-82
2023/07/31 07:26:11;;;;;;;5.78;3.05;;;17.50;99.90;;;;;;5088644;28;20028;-83
2023/07/31 07:28:37;;;;;;;8.98;3.28;;;17.50;99.90;;;;;;5078959;28;20059;-81
2023/07/31 07:31:06;;;;;;;8.25;3.55;;;17.60;99.90;;;;;;5082307;28;20410;-82
2023/07/31 07:33:31;;;;;;;8.27;3.35;;;17.60;99.90;;;;;;5075866;28;20027;-81
2023/07/31 07:36:01;;;;;;;11.63;3.25;;;17.70;99.90;;;;;;5080664;28;20025;-80
2023/07/31 07:38:27;;;;;;;4.88;3.22;;;17.80;99.90;;;;;;5078154;28;20248;-83
2023/07/31 07:40:53;;;;;;;7.35;4.13;;;17.80;99.90;;;;;;5083345;28;20369;-83
2023/07/31 07:43:19;;;;;;;11.35;3.67;;;17.90;99.90;;;;;;5083545;28;20039;-84
2023/07/31 07:45:44;;;;;;;7.72;3.10;;;18.00;99.90;;;;;;5060857;28;20118;-83
2023/07/31 07:48:10;;;;;;;6.47;3.40;;;18.00;99.90;;;;;;5078538;28;20024;-83
2023/07/31 07:50:38;;;;;;;10.02;3.55;;;17.90;99.90;;;;;;5060487;28;20028;-84
2023/07/31 07:53:03;;;;;;;9.02;3.72;;;18.00;99.90;;;;;;5077613;28;20020;-83
2023/07/31 07:55:29;;;;;;;7.03;3.60;;;18.00;99.90;;;;;;5078437;28;20103;-82
2023/07/31 07:57:54;;;;;;;10.02;3.45;;;18.10;99.90;;;;;;5081067;28;20117;-82
2023/07/31 08:00:20;;;;;;;7.75;3.45;;;18.00;99.90;;;;;;5076819;28;20032;-83
2023/07/31 08:02:45;;;;;;;12.00;3.58;;;18.10;99.90;;;;;;5055908;28;20129;-82
2023/07/31 08:05:11;;;;;;;12.90;4.32;;;18.00;99.90;;;;;;5076748;28;20028;-81
2023/07/31 08:07:37;;;;;;;13.75;4.72;;;18.00;99.90;;;;;;5082061;28;20093;-84
2023/07/31 08:10:02;;;;;;;8.65;4.00;;;18.00;99.90;;;;;;5077445;28;20035;-83
2023/07/31 08:12:28;;;;;;;12.75;3.40;;;18.00;99.90;;;;;;5077457;28;20115;-83
2023/07/31 08:14:53;;;;;;;8.30;3.50;;;18.10;99.90;;;;;;5081010;28;20051;-83
2023/07/31 08:17:19;;;;;;;14.77;4.47;;;18.10;99.90;;;;;;5077350;28;20036;-84
2023/07/31 08:19:48;;;;;;;8.70;4.32;;;18.20;99.90;;;;;;5077959;28;20036;-84
2023/07/31 08:22:14;;;;;;;8.43;3.47;;;18.20;99.90;;;;;;5077857;28;20067;-83
2023/07/31 08:24:39;;;;;;;8.77;3.70;;;18.30;99.90;;;;;;5079862;28;20062;-84
2023/07/31 08:27:06;;;;;;;9.98;3.55;;;18.30;99.90;;;;;;5077318;28;20048;-84
2023/07/31 08:29:32;;;;;;;11.20;4.20;;;18.30;99.90;;;;;;5077253;28;20082;-84
2023/07/31 08:31:57;;;;;;;9.40;3.83;;;18.30;99.90;;;;;;5074338;28;20028;-81
2023/07/31 08:34:23;;;;;;;8.95;3.58;;;18.40;99.90;;;;;;5077220;28;20048;-81
2023/07/31 08:36:48;;;;;;;14.90;4.15;;;18.30;99.90;;;;;;5077995;28;20071;-82
2023/07/31 08:39:14;;;;;;;10.45;3.67;;;18.30;99.90;;;;;;5078132;28;20020;-82
2023/07/31 08:41:40;;;;;;;8.52;3.75;;;18.40;99.90;;;;;;5072871;28;20020;-81
2023/07/31 08:44:07;;;;;;;11.23;3.25;;;18.30;99.90;;;;;;5077897;28;20467;-79
2023/07/31 08:46:33;;;;;;;10.43;3.78;;;18.30;99.90;;;;;;5077595;28;20066;-81
2023/07/31 08:49:00;;;;;;;16.25;3.90;;;18.30;99.90;;;;;;5077802;28;20024;-82
2023/07/31 08:51:26;;;;;;;5.95;2.95;;;18.30;99.90;;;;;;5077765;28;20031;-85
2023/07/31 08:53:53;;;;;;;6.68;2.90;;;18.30;99.90;;;;;;5083294;28;20026;-84
2023/07/31 08:56:20;;;;;;;8.30;2.75;;;18.30;99.90;;;;;;5085338;28;20111;-83
2023/07/31 08:58:47;;;;;;;5.60;3.20;;;18.30;99.90;;;;;;5055017;28;20024;-85
2023/07/31 09:01:14;;;;;;;12.65;2.92;;;18.30;99.90;;;;;;5072290;28;20315;-82
2023/07/31 09:03:41;;;;;;;5.85;2.20;;;18.30;99.90;;;;;;5085181;28;20091;-83
2023/07/31 09:06:07;;;;;;;6.72;2.50;;;18.20;99.90;;;;;;5085084;28;20111;-82
2023/07/31 09:08:33;;;;;;;4.50;2.15;;;18.30;99.90;;;;;;5077035;28;20042;-79
2023/07/31 09:11:02;;;;;;;3.50;2.22;;;18.30;99.90;;;;;;5071394;28;20032;-82
2023/07/31 09:13:30;;;;;;;5.40;2.40;;;18.30;99.90;;;;;;5076566;28;20107;-82
2023/07/31 09:15:55;;;;;;;5.72;2.00;;;18.30;99.90;;;;;;5076748;28;20028;-82
2023/07/31 09:18:22;;;;;;;3.83;1.58;;;18.20;99.90;;;;;;5076808;28;20078;-81
2023/07/31 09:21:04;;;;;;;3.92;1.67;;;18.30;99.90;;;;;;5076029;28;20059;-82
2023/07/31 09:23:44;;;;;;;4.00;1.63;;;18.30;99.90;;;;;;5084965;28;20107;-82
2023/07/31 09:26:10;;;;;;;3.00;1.75;;;18.30;99.90;;;;;;5068258;28;20033;-82
2023/07/31 09:28:37;;;;;;;2.83;1.50;;;18.30;99.90;;;;;;5067883;28;20477;-82
2023/07/31 09:31:03;;;;;;;2.83;1.73;;;18.30;99.90;;;;;;5076504;28;20098;-82
2023/07/31 09:33:28;;;;;;;3.92;1.90;;;18.30;99.90;;;;;;5085070;28;20460;-83
2023/07/31 09:35:54;;;;;;;4.22;2.00;;;18.30;99.90;;;;;;5082414;28;20040;-81
2023/07/31 09:38:19;;;;;;;4.70;2.15;;;18.30;99.90;;;;;;5083551;28;20024;-81
2023/07/31 09:40:49;;;;;;;9.55;2.65;;;18.30;99.90;;;;;;5081017;28;20070;-82
2023/07/31 09:43:20;;;;;;;6.82;2.88;;;18.30;99.90;;;;;;5084191;28;20384;-82
2023/07/31 09:45:46;;;;;;;3.25;2.47;;;18.20;99.90;;;;;;5078235;28;20032;-81
2023/07/31 09:48:16;;;;;;;4.60;2.40;;;18.20;99.90;;;;;;5084368;28;20024;-80
2023/07/31 09:50:44;;;;;;;6.65;3.03;;;18.20;99.90;;;;;;5085058;28;20048;-81
2023/07/31 09:53:09;;;;;;;7.88;2.58;;;18.20;99.90;;;;;;5082285;28;20028;-82
2023/07/31 09:55:36;;;;;;;4.65;2.88;;;18.10;99.90;;;;;;5079881;28;20032;-82
2023/07/31 09:58:07;;;;;;;8.82;3.83;;;18.10;99.90;;;;;;5084602;28;20028;-82
2023/07/31 10:00:33;;;;;;;6.00;3.28;;;18.20;99.90;;;;;;5076580;28;20024;-83
2023/07/31 10:03:01;;;;;;;9.88;3.47;;;18.20;99.90;;;;;;5075629;28;20058;-83
2023/07/31 10:05:48;;;;;;;8.52;3.83;;;18.30;99.90;;;;;;5077636;28;20469;-82
2023/07/31 10:08:15;;;;;;;7.47;3.90;;;18.30;99.90;;;;;;5086113;28;20024;-81
2023/07/31 10:10:43;;;;;;;6.65;3.47;;;18.40;99.90;;;;;;5087135;28;20032;-84
2023/07/31 10:13:09;;;;;;;9.02;3.65;;;18.40;99.90;;;;;;5089157;28;20032;-83
2023/07/31 10:15:36;;;;;;;6.95;3.58;;;18.40;99.90;;;;;;5081720;28;20051;-84
2023/07/31 10:18:02;;;;;;;9.80;4.32;;;18.40;99.90;;;;;;5088623;28;20535;-82
2023/07/31 10:20:29;;;;;;;10.45;3.40;;;18.40;99.90;;;;;;5069721;28;20027;-83
2023/07/31 10:22:56;;;;;;;9.90;3.80;;;18.40;99.90;;;;;;5080129;28;20016;-83
2023/07/31 10:25:22;;;;;;;5.95;3.72;;;18.40;99.90;;;;;;5082974;28;20047;-82
2023/07/31 10:27:48;;;;;;;10.07;3.92;;;18.50;99.90;;;;;;5090031;28;20047;-82
2023/07/31 10:30:17;;;;;;;10.25;3.78;;;18.50;99.90;;;;;;5086369;28;20047;-83
2023/07/31 10:32:44;;;;;;;8.00;3.85;;;18.50;99.90;;;;;;5084869;28;20048;-82
2023/07/31 10:35:11;;;;;;;12.35;4.10;;;18.60;99.90;;;;;;5079624;28;20487;-82
2023/07/31 10:37:39;;;;;;;9.13;3.90;;;18.70;99.90;;;;;;5058318;28;20351;-81
2023/07/31 10:40:19;;;;;;;8.73;3.45;;;18.70;99.90;;;;;;5080273;28;20124;-83
2023/07/31 10:42:53;;;;;;;10.30;4.18;;;18.70;99.90;;;;;;5079731;28;20103;-83
2023/07/31 10:45:38;;;;;;;6.38;3.03;;;18.70;99.90;;;;;;5079448;28;20036;-82
2023/07/31 10:48:05;;;;;;;8.63;3.65;;;18.70;99.90;;;;;;5083142;28;20024;-82
2023/07/31 10:50:52;;;;;;;5.95;3.25;;;18.70;99.90;;;;;;5078750;28;20122;-83
2023/07/31 10:53:32;;;;;;;8.73;3.38;;;18.80;99.90;;;;;;5077200;28;20178;-82
2023/07/31 10:56:03;;;;;;;7.50;3.53;;;18.80;99.90;;;;;;5078950;28;20105;-82
2023/07/31 10:58:28;;;;;;;7.65;3.60;;;18.90;99.90;;;;;;5078554;28;20195;-82
2023/07/31 11:01:00;;;;;;;5.70;3.13;;;18.90;99.90;;;;;;5074460;28;20024;-81
2023/07/31 11:03:44;;;;;;;5.85;3.17;;;18.90;99.90;;;;;;5078034;28;20024;-83
2023/07/31 11:06:10;;;;;;;7.40;3.90;;;19.00;99.90;;;;;;5078650;28;20035;-80
2023/07/31 11:08:42;;;;;;;4.97;3.00;;;19.00;99.90;;;;;;5078847;28;20479;-79
2023/07/31 11:11:09;;;;;;;7.35;3.10;;;19.10;99.90;;;;;;5081421;28;20060;-83
2023/07/31 11:13:45;;;;;;;7.82;3.22;;;19.10;99.90;;;;;;5082806;28;20457;-79
2023/07/31 11:16:14;;;;;;;6.65;3.38;;;19.10;99.90;;;;;;5086420;28;20492;-82
2023/07/31 11:18:44;;;;;;;8.85;3.85;;;19.20;99.90;;;;;;5088743;28;20024;-83
2023/07/31 11:21:14;;;;;;;6.15;3.03;;;19.10;99.90;;;;;;5088126;28;20028;-83
2023/07/31 11:23:40;;;;;;;7.45;3.50;;;19.00;99.90;;;;;;5087003;28;20028;-80
2023/07/31 11:26:07;;;;;;;6.05;3.20;;;19.00;99.90;;;;;;5086569;28;20503;-80
2023/07/31 11:28:35;;;;;;;13.25;3.63;;;19.00;99.90;;;;;;5069779;28;20090;-81
2023/07/31 11:31:02;;;;;;;5.55;3.20;;;19.00;99.90;;;;;;5081639;28;20036;-80
2023/07/31 11:33:28;;;;;;;5.38;3.63;;;19.00;99.90;;;;;;5057745;28;20123;-81
2023/07/31 11:35:53;;;;;;;4.00;3.10;;;18.90;99.90;;;;;;5071458;28;20190;-81
2023/07/31 11:38:30;;;;;;;8.50;3.88;;;18.90;99.90;;;;;;5081960;28;20282;-83
2023/07/31 11:41:03;;;;;;;6.03;2.78;;;18.90;99.90;;;;;;5086261;28;20032;-79
2023/07/31 11:43:31;;;;;;;6.50;3.35;;;18.90;99.90;;;;;;5080102;28;20035;-82
2023/07/31 11:46:04;;;;;;;7.60;3.78;;;18.90;99.90;;;;;;5078414;28;20028;-82
2023/07/31 11:48:35;;;;;;;5.15;3.38;;;18.90;99.90;;;;;;5085077;28;20040;-84
2023/07/31 11:51:03;;;;;;;7.43;2.85;;;19.00;99.90;;;;;;5080139;28;20051;-82
2023/07/31 11:53:35;;;;;;;7.38;3.30;;;19.00;99.90;;;;;;5068647;28;20028;-80
2023/07/31 11:56:06;;;;;;;9.90;3.53;;;19.00;99.90;;;;;;5069323;28;20020;-82
2023/07/31 11:58:34;;;;;;;6.18;3.65;;;19.00;99.90;;;;;;5085315;28;20081;-80
2023/07/31 12:01:01;;;;;;;8.48;3.75;;;19.10;99.90;;;;;;5082099;28;20491;-81
2023/07/31 12:03:27;;;;;;;13.63;3.78;;;19.10;99.90;;;;;;5087469;28;20104;-81
2023/07/31 12:05:54;;;;;;;7.50;3.33;;;19.20;99.90;;;;;;5070051;28;20024;-84
2023/07/31 12:08:22;;;;;;;10.05;3.72;;;19.40;99.90;;;;;;5086834;28;20516;-83
2023/07/31 12:10:50;;;;;;;8.40;4.38;;;19.50;99.90;;;;;;5079789;28;20040;-82
2023/07/31 12:13:24;;;;;;;8.98;4.40;;;19.70;99.90;;;;;;5086341;28;20035;-82
2023/07/31 12:15:56;;;;;;;11.27;3.97;;;19.90;99.90;;;;;;5081655;28;20401;-81
2023/07/31 12:18:22;;;;;;;11.10;3.60;;;20.20;99.90;;;;;;5078088;28;20119;-81
2023/07/31 12:21:00;;;;;;;6.07;3.63;;;20.40;99.90;;;;;;5059681;28;20051;-80
2023/07/31 12:23:28;;;;;;;7.85;3.40;;;20.60;99.90;;;;;;5083693;28;20089;-81
2023/07/31 12:26:01;;;;;;;5.63;3.28;;;20.80;99.90;;;;;;5064530;28;20118;-82
2023/07/31 12:28:27;;;;;;;10.70;3.35;;;20.90;99.90;;;;;;5068710;28;20114;-83
2023/07/31 12:30:59;;;;;;;7.40;3.63;;;21.00;99.90;;;;;;5087580;28;20028;-80
2023/07/31 12:33:30;;;;;;;5.50;3.42;;;21.10;99.90;;;;;;5087371;28;20054;-82
2023/07/31 12:35:55;;;;;;;11.20;3.70;;;21.10;99.90;;;;;;5087232;28;20024;-80
2023/07/31 12:38:21;;;;;;;8.98;3.63;;;21.30;99.90;;;;;;5078506;28;20031;-81
2023/07/31 12:40:46;;;;;;;11.95;3.78;;;21.40;99.90;;;;;;5075326;28;20024;-81
2023/07/31 12:43:13;;;;;;;7.45;3.25;;;21.60;99.90;;;;;;5068107;28;20077;-82
2023/07/31 12:45:39;;;;;;;9.02;3.70;;;21.70;99.90;;;;;;5075645;28;20032;-83